AK18 weather

Camp Point Airport
Homer, Alaska, United States

Public forecast

Using degrees Fahrenheit for public forecast. Weather courtesy of forecast.io.

METAR (pilot weather report)

Closest report is Seldovia Airport, 47.8 nm (88.5 km) ESE. Retrieved 2019/09/19 08:53 UTC (1 hour ago):

PASO 190853Z AUTO 17004KT 10SM CLR 11/08 A2959 RMK AO2 SLP019 T01060078 401560106 53020 TSNO

TAF (pilot weather forecast)

Closest forecast is Homer Airport, 49.8 nm (92.2 km) ESE. Retrieved 2019/09/19 06:42 UTC (3 hours ago):

TAF PAHO 190540Z 1906/2006 22006KT P6SM -SHRA SCT040 BKN060 FM200000 20008KT P6SM -SHRA BKN035 OVC050